createdAt,value
2019-01-12T00:03:49.824Z,91.81
2019-01-12T00:06:18.287Z,91.67
2019-01-12T00:08:46.784Z,91.70
2019-01-12T00:11:15.250Z,91.95
2019-01-12T00:13:43.746Z,91.05
2019-01-12T00:16:12.202Z,90.90
2019-01-12T00:18:40.710Z,90.48
2019-01-12T00:21:09.158Z,91.01
2019-01-12T00:23:37.642Z,90.38
2019-01-12T00:26:25.364Z,90.28
2019-01-12T00:28:53.853Z,89.47
2019-01-12T00:31:42.946Z,89.87
2019-01-12T00:34:11.431Z,89.80
2019-01-12T00:36:39.902Z,89.35
2019-01-12T00:39:29.184Z,89.31
2019-01-12T00:41:57.634Z,89.61
2019-01-12T00:44:26.119Z,90.17
2019-01-12T00:46:54.587Z,90.06
2019-01-12T00:49:23.078Z,89.75
2019-01-12T00:51:51.551Z,88.93
2019-01-12T00:54:20.054Z,88.13
2019-01-12T00:56:48.525Z,88.32
2019-01-12T00:59:17.015Z,88.47
2019-01-12T01:01:45.539Z,88.05
2019-01-12T01:04:14.040Z,88.18
2019-01-12T01:06:42.488Z,88.42
2019-01-12T01:09:11.041Z,88.82
2019-01-12T01:11:39.504Z,88.47
2019-01-12T01:14:07.999Z,87.72
2019-01-12T01:16:36.472Z,87.77
2019-01-12T01:19:25.755Z,87.15
2019-01-12T01:21:54.227Z,87.52
2019-01-12T01:24:22.714Z,88.19
2019-01-12T01:26:51.201Z,88.05
2019-01-12T01:29:19.694Z,87.59
2019-01-12T01:31:48.194Z,87.87
2019-01-12T01:34:16.643Z,87.50
2019-01-12T01:36:45.127Z,86.96
2019-01-12T01:39:13.625Z,87.18
2019-01-12T01:41:42.078Z,87.33
2019-01-12T01:44:10.564Z,87.89
2019-01-12T01:46:39.100Z,87.26
2019-01-12T01:49:07.597Z,87.46
2019-01-12T01:51:36.051Z,87.62
2019-01-12T01:54:04.611Z,87.34
2019-01-12T01:56:33.078Z,87.26
2019-01-12T01:59:01.574Z,87.35
2019-01-12T02:01:30.041Z,87.58
2019-01-12T02:03:58.516Z,87.81
2019-01-12T02:06:26.985Z,87.52
2019-01-12T02:08:55.472Z,87.44
2019-01-12T02:11:23.941Z,89.84
2019-01-12T02:13:52.552Z,88.60
2019-01-12T02:16:21.037Z,88.24
2019-01-12T02:18:49.541Z,88.94
2019-01-12T02:21:17.998Z,88.97
2019-01-12T02:23:46.452Z,89.00
2019-01-12T02:26:14.933Z,88.86
2019-01-12T02:28:43.410Z,88.82
2019-01-12T02:31:11.894Z,89.07
2019-01-12T02:33:40.358Z,88.95
2019-01-12T02:36:08.846Z,88.14
2019-01-12T02:38:37.373Z,88.35
2019-01-12T02:41:05.880Z,88.40
2019-01-12T02:43:34.348Z,88.25
2019-01-12T02:46:02.832Z,87.58
2019-01-12T02:48:31.291Z,88.09
2019-01-12T02:50:59.772Z,87.43
2019-01-12T02:53:28.235Z,87.55
2019-01-12T02:55:56.724Z,87.37
2019-01-12T02:58:25.192Z,87.76
2019-01-12T03:00:53.700Z,87.35
2019-01-12T03:03:22.156Z,87.74
2019-01-12T03:05:50.650Z,87.70
2019-01-12T03:08:19.115Z,87.85
2019-01-12T03:10:47.597Z,87.80
2019-01-12T03:13:16.054Z,88.26
2019-01-12T03:15:44.538Z,88.48
2019-01-12T03:18:12.990Z,88.58
2019-01-12T03:20:41.485Z,88.65
2019-01-12T03:23:09.957Z,89.08
2019-01-12T03:25:38.465Z,89.21
2019-01-12T03:28:06.918Z,89.37
2019-01-12T03:30:36.656Z,89.47
2019-01-12T03:33:05.816Z,89.68
2019-01-12T03:35:34.298Z,89.59
2019-01-12T03:38:02.766Z,89.83
2019-01-12T03:40:31.242Z,89.93
2019-01-12T03:42:59.698Z,90.43
2019-01-12T03:45:28.155Z,90.09
2019-01-12T03:47:56.622Z,90.20
2019-01-12T03:50:25.146Z,90.28
2019-01-12T03:52:53.628Z,90.74
2019-01-12T03:55:25.859Z,90.38
2019-01-12T03:57:52.364Z,90.79
2019-01-12T04:00:41.611Z,90.72
2019-01-12T04:03:10.090Z,90.60
2019-01-12T04:05:38.562Z,90.65
2019-01-12T04:08:07.049Z,90.50
2019-01-12T04:10:35.501Z,90.76
2019-01-12T04:13:23.317Z,90.69
2019-01-12T04:15:51.768Z,90.30
2019-01-12T04:18:20.245Z,90.23
2019-01-12T04:20:48.704Z,90.20
2019-01-12T04:23:17.184Z,90.18
2019-01-12T04:25:45.637Z,90.40
2019-01-12T04:28:14.117Z,90.31
2019-01-12T04:30:42.577Z,90.36
2019-01-12T04:33:11.058Z,90.53
2019-01-12T04:35:39.530Z,90.45
2019-01-12T04:38:08.006Z,90.71
2019-01-12T04:40:36.458Z,90.71
2019-01-12T04:43:04.936Z,90.82
2019-01-12T04:45:33.398Z,90.86
2019-01-12T04:48:01.871Z,90.74
2019-01-12T04:50:30.330Z,90.71
2019-01-12T04:52:58.810Z,90.52
2019-01-12T04:55:27.278Z,90.30
2019-01-12T04:57:55.758Z,90.45
2019-01-12T05:00:24.216Z,90.58
2019-01-12T05:02:52.698Z,90.35
2019-01-12T05:05:21.170Z,90.42
2019-01-12T05:07:49.658Z,90.27
2019-01-12T05:10:18.131Z,90.16
2019-01-12T05:12:46.615Z,90.11
2019-01-12T05:15:35.859Z,89.92
2019-01-12T05:18:04.414Z,89.77
2019-01-12T05:20:33.661Z,89.62
2019-01-12T05:23:03.090Z,89.69
2019-01-12T05:25:31.545Z,89.91
2019-01-12T05:28:00.032Z,89.38
2019-01-12T05:30:28.488Z,89.70
2019-01-12T05:32:56.970Z,89.58
2019-01-12T05:35:25.416Z,89.64
2019-01-12T05:37:53.913Z,89.71
2019-01-12T05:40:22.376Z,89.36
2019-01-12T05:42:50.852Z,89.15
2019-01-12T05:45:19.383Z,88.72
2019-01-12T05:47:47.857Z,88.64
2019-01-12T05:50:16.398Z,88.32
2019-01-12T05:52:44.879Z,88.25
2019-01-12T05:55:13.410Z,88.45
2019-01-12T05:57:41.895Z,88.51
2019-01-12T06:00:29.683Z,87.38
2019-01-12T06:02:58.172Z,87.08
2019-01-12T06:05:26.631Z,87.10
2019-01-12T06:07:55.125Z,87.16
2019-01-12T06:10:23.584Z,87.50
2019-01-12T06:12:52.058Z,86.83
2019-01-12T06:15:20.519Z,87.57
2019-01-12T06:18:09.783Z,87.06
2019-01-12T06:20:38.309Z,87.08
2019-01-12T06:23:06.792Z,87.44
2019-01-12T06:25:35.251Z,87.59
2019-01-12T06:28:03.720Z,87.48
2019-01-12T06:30:32.184Z,87.59
2019-01-12T06:33:00.659Z,87.56
2019-01-12T06:35:29.116Z,87.43
2019-01-12T06:37:57.611Z,87.24
2019-01-12T06:40:26.070Z,86.74
2019-01-12T06:42:54.557Z,86.78
2019-01-12T06:45:23.026Z,86.41
2019-01-12T06:47:51.485Z,86.20
2019-01-12T06:50:20.101Z,86.54
2019-01-12T06:52:48.561Z,86.37
2019-01-12T06:55:17.114Z,86.54
2019-01-12T06:57:45.637Z,86.17
2019-01-12T07:00:34.915Z,86.44
2019-01-12T07:03:03.394Z,86.53
2019-01-12T07:05:31.867Z,86.48
2019-01-12T07:08:00.321Z,86.74
2019-01-12T07:10:28.810Z,86.62
2019-01-12T07:12:57.276Z,86.42
2019-01-12T07:15:25.746Z,86.14
2019-01-12T07:17:54.207Z,86.62
2019-01-12T07:20:22.690Z,86.48
2019-01-12T07:22:51.149Z,86.64
2019-01-12T07:25:19.627Z,86.68
2019-01-12T07:27:48.087Z,86.65
2019-01-12T07:30:37.350Z,86.73
2019-01-12T07:33:05.797Z,86.93
2019-01-12T07:35:34.320Z,86.91
2019-01-12T07:38:02.768Z,86.61
2019-01-12T07:40:31.249Z,87.38
2019-01-12T07:42:59.707Z,87.98
2019-01-12T07:45:28.273Z,88.34
2019-01-12T07:47:56.746Z,88.37
2019-01-12T07:50:25.231Z,88.84
2019-01-12T07:52:53.691Z,89.60
2019-01-12T07:55:22.170Z,90.18
2019-01-12T07:57:50.635Z,89.69
2019-01-12T08:00:39.907Z,89.76
2019-01-12T08:03:08.359Z,90.32
2019-01-12T08:05:36.840Z,90.17
2019-01-12T08:08:05.392Z,90.16
2019-01-12T08:10:33.846Z,89.96
2019-01-12T08:13:02.324Z,90.12
2019-01-12T08:15:30.809Z,90.36
2019-01-12T08:17:59.255Z,90.67
2019-01-12T08:20:27.738Z,90.30
2019-01-12T08:22:56.205Z,90.73
2019-01-12T08:25:45.484Z,90.35
2019-01-12T08:28:13.982Z,90.43
2019-01-12T08:30:42.447Z,90.47
2019-01-12T08:33:10.930Z,90.67
2019-01-12T08:35:39.397Z,90.98
2019-01-12T08:38:08.014Z,91.40
2019-01-12T08:40:36.491Z,91.37
2019-01-12T08:43:25.742Z,91.18
2019-01-12T08:45:54.228Z,91.35
2019-01-12T08:48:22.696Z,91.54
2019-01-12T08:50:51.183Z,91.93
2019-01-12T08:53:19.638Z,92.32
2019-01-12T08:55:48.137Z,92.93
2019-01-12T08:58:16.604Z,93.31
2019-01-12T09:00:45.102Z,93.70
2019-01-12T09:03:13.567Z,93.64
2019-01-12T09:05:42.066Z,93.89
2019-01-12T09:08:10.523Z,94.49
2019-01-12T09:10:39.011Z,94.74
2019-01-12T09:13:07.463Z,94.91
2019-01-12T09:15:35.943Z,95.65
2019-01-12T09:18:04.408Z,95.50
2019-01-12T09:20:32.901Z,95.34
2019-01-12T09:23:01.370Z,95.14
2019-01-12T09:25:29.869Z,96.04
2019-01-12T09:27:59.299Z,96.69
2019-01-12T09:30:28.528Z,97.08
2019-01-12T09:32:56.983Z,97.72
2019-01-12T09:35:44.717Z,97.60
2019-01-12T09:38:13.172Z,97.64
2019-01-12T09:40:41.666Z,97.39
2019-01-12T09:43:10.128Z,97.25
2019-01-12T09:45:57.732Z,97.06
2019-01-12T09:48:26.177Z,97.49
2019-01-12T09:51:13.854Z,97.27
2019-01-12T09:53:42.322Z,97.68
2019-01-12T09:56:10.797Z,97.64
2019-01-12T09:58:39.263Z,97.85
2019-01-12T10:01:28.538Z,98.11
2019-01-12T10:03:56.991Z,97.44
2019-01-12T10:06:25.485Z,97.31
2019-01-12T10:08:53.931Z,97.49
2019-01-12T10:11:22.413Z,97.76
2019-01-12T10:13:50.868Z,97.33
2019-01-12T10:16:19.356Z,96.88
2019-01-12T10:18:47.815Z,96.68
2019-01-12T10:21:16.295Z,96.65
2019-01-12T10:24:04.068Z,96.50
2019-01-12T10:26:32.886Z,96.62
2019-01-12T10:29:01.369Z,96.72
2019-01-12T10:31:29.823Z,96.65
2019-01-12T10:33:58.275Z,96.22
2019-01-12T10:36:26.865Z,96.36
2019-01-12T10:38:55.319Z,96.20
2019-01-12T10:41:23.797Z,96.66
2019-01-12T10:43:52.261Z,96.65
2019-01-12T10:46:20.740Z,96.50
2019-01-12T10:48:49.219Z,96.73
2019-01-12T10:51:17.707Z,96.50
2019-01-12T10:53:46.158Z,96.36
2019-01-12T10:56:14.637Z,96.01
2019-01-12T10:58:43.091Z,96.06
2019-01-12T11:01:11.622Z,96.12
2019-01-12T11:03:40.167Z,96.17
2019-01-12T11:06:08.630Z,96.03
2019-01-12T11:08:37.108Z,96.01
2019-01-12T11:11:05.632Z,95.94
2019-01-12T11:13:34.110Z,95.76
2019-01-12T11:16:02.644Z,95.86
2019-01-12T11:18:31.129Z,95.87
2019-01-12T11:20:59.586Z,95.96
2019-01-12T11:23:28.068Z,95.48
2019-01-12T11:25:56.532Z,95.45
2019-01-12T11:28:25.000Z,95.29
2019-01-12T11:30:53.515Z,95.15
2019-01-12T11:33:21.997Z,95.06
2019-01-12T11:35:50.468Z,94.77
2019-01-12T11:38:39.745Z,94.38
2019-01-12T11:41:08.196Z,94.32
2019-01-12T11:43:36.678Z,94.00
2019-01-12T11:46:25.946Z,93.96
2019-01-12T11:48:54.418Z,93.52
2019-01-12T11:51:22.867Z,93.69
2019-01-12T11:53:51.356Z,93.38
2019-01-12T11:56:19.826Z,93.66
2019-01-12T11:58:48.304Z,93.82
2019-01-12T12:01:16.765Z,93.75
2019-01-12T12:04:05.868Z,93.77
2019-01-12T12:06:34.332Z,93.91
2019-01-12T12:09:02.886Z,93.84
2019-01-12T12:11:31.344Z,93.56
2019-01-12T12:13:59.815Z,93.46
2019-01-12T12:16:28.281Z,93.25
2019-01-12T12:18:56.758Z,93.18
2019-01-12T12:21:25.207Z,92.78
2019-01-12T12:23:53.688Z,92.95
2019-01-12T12:26:22.143Z,92.35
2019-01-12T12:28:50.618Z,92.48
2019-01-12T12:31:19.066Z,92.21
2019-01-12T12:33:47.546Z,92.70
2019-01-12T12:36:16.015Z,92.13
2019-01-12T12:38:44.490Z,91.76
2019-01-12T12:41:12.949Z,91.78
2019-01-12T12:43:41.437Z,91.65
2019-01-12T12:48:57.338Z,91.37
2019-01-12T12:51:25.792Z,91.41
2019-01-12T12:53:54.274Z,90.91
2019-01-12T12:56:43.519Z,91.15
2019-01-12T12:59:11.999Z,90.96
2019-01-12T13:01:40.464Z,90.93
2019-01-12T13:04:08.946Z,90.61
2019-01-12T13:06:37.400Z,90.65
2019-01-12T13:09:26.661Z,90.22
2019-01-12T13:11:55.139Z,89.78
2019-01-12T13:14:23.618Z,89.20
2019-01-12T13:16:52.079Z,89.67
2019-01-12T13:19:20.561Z,89.50
2019-01-12T13:21:49.011Z,89.48
2019-01-12T13:24:37.705Z,89.06
2019-01-12T13:27:06.144Z,89.35
2019-01-12T13:29:34.624Z,89.41
2019-01-12T13:32:03.078Z,89.40
2019-01-12T13:34:31.564Z,88.80
2019-01-12T13:37:00.035Z,88.70
2019-01-12T13:39:32.083Z,88.28
2019-01-12T13:41:58.690Z,88.78
2019-01-12T13:44:27.162Z,88.48
2019-01-12T13:46:55.644Z,88.40
2019-01-12T13:49:24.107Z,88.39
2019-01-12T13:51:52.563Z,88.49
2019-01-12T13:54:21.044Z,88.74
2019-01-12T13:56:49.502Z,89.43
2019-01-12T13:59:17.983Z,89.43
2019-01-12T14:01:46.464Z,89.87
2019-01-12T14:04:14.916Z,90.11
2019-01-12T14:06:43.381Z,90.26
2019-01-12T14:09:11.863Z,90.13
2019-01-12T14:11:40.317Z,90.52
2019-01-12T14:14:16.024Z,90.75
2019-01-12T14:16:44.476Z,91.10
2019-01-12T14:19:12.976Z,92.16
2019-01-12T14:21:41.442Z,92.20
2019-01-12T14:24:09.897Z,92.01
2019-01-12T14:26:38.379Z,92.66
2019-01-12T14:29:06.834Z,93.27
2019-01-12T14:31:35.314Z,93.34
2019-01-12T14:34:03.916Z,93.58
2019-01-12T14:36:32.399Z,94.03
2019-01-12T14:39:00.891Z,94.19
2019-01-12T14:41:29.369Z,94.13
2019-01-12T14:43:57.821Z,94.15
2019-01-12T14:46:26.317Z,94.40
2019-01-12T14:48:54.804Z,93.77
2019-01-12T14:51:23.296Z,95.21
2019-01-12T14:53:51.752Z,94.88
2019-01-12T14:56:20.257Z,95.33
2019-01-12T14:58:48.732Z,95.94
2019-01-12T15:01:17.190Z,96.29
2019-01-12T15:03:45.651Z,96.54
2019-01-12T15:06:14.108Z,97.16
2019-01-12T15:08:42.573Z,97.06
2019-01-12T15:11:11.215Z,97.35
2019-01-12T15:13:39.703Z,97.60
2019-01-12T15:16:08.199Z,97.81
2019-01-12T15:18:36.690Z,97.30
2019-01-12T15:21:05.251Z,97.99
2019-01-12T15:23:33.761Z,98.37
2019-01-12T15:26:02.234Z,98.37
2019-01-12T15:28:30.687Z,98.01
2019-01-12T15:30:59.170Z,98.37
2019-01-12T15:33:28.336Z,98.85
2019-01-12T15:35:57.902Z,98.34
2019-01-12T15:38:26.363Z,98.43
2019-01-12T15:40:54.845Z,98.96
2019-01-12T15:43:23.318Z,99.39
2019-01-12T15:45:51.814Z,99.67
2019-01-12T15:48:20.259Z,99.40
2019-01-12T15:50:48.745Z,99.20
2019-01-12T15:53:17.211Z,99.22
2019-01-12T15:55:45.694Z,99.20
2019-01-12T15:58:16.346Z,99.19
2019-01-12T16:00:44.358Z,99.48
2019-01-12T16:03:12.815Z,99.25
2019-01-12T16:05:41.299Z,99.34
2019-01-12T16:08:09.772Z,99.21
2019-01-12T16:10:38.232Z,99.38
2019-01-12T16:13:06.863Z,99.59
2019-01-12T16:15:35.320Z,99.89
2019-01-12T16:18:03.804Z,99.70
2019-01-12T16:23:46.335Z,99.66
2019-01-12T16:26:14.794Z,99.29
2019-01-12T16:28:43.288Z,99.29
2019-01-12T16:31:11.738Z,99.51
2019-01-12T16:33:40.226Z,99.80
2019-01-12T16:36:08.778Z,99.83
2019-01-12T16:38:37.227Z,99.65
2019-01-12T16:41:05.813Z,99.37
2019-01-12T16:43:34.280Z,99.07
2019-01-12T16:46:02.720Z,99.27
2019-01-12T16:48:31.206Z,99.38
2019-01-12T16:50:59.668Z,100.00
2019-01-12T16:53:28.146Z,100.00
2019-01-12T16:55:56.603Z,99.69
2019-01-12T16:58:30.403Z,99.26
2019-01-12T17:00:55.266Z,99.14
2019-01-12T17:03:23.752Z,99.27
2019-01-12T17:05:52.224Z,99.19
2019-01-12T17:08:20.734Z,99.36
2019-01-12T17:10:49.196Z,99.53
2019-01-12T17:13:17.667Z,99.61
2019-01-12T17:15:46.118Z,100.00
2019-01-12T17:18:14.602Z,100.00
2019-01-12T17:20:43.074Z,100.00
2019-01-12T17:23:11.551Z,99.84
2019-01-12T17:25:40.014Z,100.00
2019-01-12T17:28:27.709Z,100.00
2019-01-12T17:30:56.164Z,100.00
2019-01-12T17:33:24.660Z,100.00
2019-01-12T17:35:53.119Z,100.00
2019-01-12T17:38:21.607Z,100.00
2019-01-12T17:40:50.071Z,100.00
2019-01-12T17:43:18.559Z,100.00
2019-01-12T17:45:47.019Z,100.00
2019-01-12T17:48:15.498Z,100.00
2019-01-12T17:50:43.950Z,100.00
2019-01-12T17:53:12.434Z,100.00
2019-01-12T17:55:40.954Z,100.00
2019-01-12T17:58:09.428Z,100.00
2019-01-12T18:03:26.969Z,100.00
2019-01-12T18:05:55.490Z,100.00
2019-01-12T18:08:23.963Z,100.00
2019-01-12T18:10:52.414Z,100.00
2019-01-12T18:13:20.902Z,100.00
2019-01-12T18:15:49.361Z,100.00
2019-01-12T18:18:17.820Z,100.00
2019-01-12T18:20:46.300Z,100.00
2019-01-12T18:23:14.748Z,100.00
2019-01-12T18:25:43.242Z,100.00
2019-01-12T18:28:11.730Z,100.00
2019-01-12T18:30:40.204Z,100.00
2019-01-12T18:33:08.676Z,100.00
2019-01-12T18:35:37.191Z,100.00
2019-01-12T18:38:05.647Z,100.00
2019-01-12T18:40:34.131Z,100.00
2019-01-12T18:43:02.610Z,100.00
2019-01-12T18:45:31.161Z,100.00
2019-01-12T18:47:59.741Z,100.00
2019-01-12T18:50:28.290Z,100.00
2019-01-12T18:52:56.767Z,100.00
2019-01-12T18:55:25.293Z,100.00
2019-01-12T18:57:53.866Z,100.00
2019-01-12T19:01:02.252Z,100.00
2019-01-12T19:03:30.724Z,100.00
2019-01-12T19:05:59.225Z,100.00
2019-01-12T19:08:27.667Z,100.00
2019-01-12T19:10:56.150Z,100.00
2019-01-12T19:13:43.714Z,100.00
2019-01-12T19:16:12.191Z,100.00
2019-01-12T19:18:40.647Z,100.00
2019-01-12T19:21:09.122Z,100.00
2019-01-12T19:23:37.577Z,100.00
2019-01-12T19:26:06.115Z,100.00
2019-01-12T19:28:34.570Z,100.00
2019-01-12T19:31:03.056Z,100.00
2019-01-12T19:33:50.628Z,100.00
2019-01-12T19:36:19.096Z,100.00
2019-01-12T19:38:47.568Z,100.00
2019-01-12T19:41:16.055Z,100.00
2019-01-12T19:43:44.508Z,100.00
2019-01-12T19:46:32.107Z,100.00
2019-01-12T19:49:00.581Z,100.00
2019-01-12T19:51:29.063Z,100.00
2019-01-12T19:53:57.561Z,100.00
2019-01-12T19:56:26.046Z,100.00
2019-01-12T19:58:54.508Z,99.83
2019-01-12T20:03:58.401Z,99.47
2019-01-12T20:06:26.896Z,99.35
2019-01-12T20:08:55.346Z,99.23
2019-01-12T20:11:23.827Z,99.14
2019-01-12T20:13:52.289Z,98.93
2019-01-12T20:16:20.774Z,98.85
2019-01-12T20:18:49.227Z,98.81
2019-01-12T20:21:17.706Z,98.74
2019-01-12T20:23:46.150Z,98.64
2019-01-12T20:26:14.626Z,98.88
2019-01-12T20:28:43.122Z,98.79
2019-01-12T20:31:50.189Z,98.88
2019-01-12T20:34:39.453Z,98.86
2019-01-12T20:37:46.545Z,98.98
2019-01-12T20:40:35.785Z,99.10
2019-01-12T20:43:25.058Z,98.87
2019-01-12T20:46:14.324Z,98.77
2019-01-12T20:49:03.595Z,98.80
2019-01-12T20:52:10.654Z,98.98
2019-01-12T20:55:00.023Z,98.88
2019-01-12T20:57:49.363Z,98.74
2019-01-12T21:00:38.626Z,98.72
2019-01-12T21:03:27.987Z,98.67
2019-01-12T21:06:35.093Z,98.66
2019-01-12T21:09:42.185Z,98.49
2019-01-12T21:12:31.559Z,98.63
2019-01-12T21:18:08.207Z,99.09
2019-01-12T21:20:36.658Z,98.66
2019-01-12T21:23:25.925Z,98.26
2019-01-12T21:25:54.374Z,98.28
2019-01-12T21:28:22.857Z,98.07
2019-01-12T21:30:51.295Z,98.05
2019-01-12T21:33:19.790Z,97.91
2019-01-12T21:35:48.235Z,98.08
2019-01-12T21:38:16.712Z,98.44
2019-01-12T21:40:45.158Z,98.47
2019-01-12T21:43:13.635Z,98.84
2019-01-12T21:46:01.360Z,98.72
2019-01-12T21:48:29.813Z,98.65
2019-01-12T21:50:58.304Z,98.54
2019-01-12T21:53:26.782Z,98.74
2019-01-12T21:58:42.767Z,98.95
2019-01-12T22:04:00.306Z,99.18
2019-01-12T22:06:28.751Z,98.94
2019-01-12T22:08:57.229Z,99.16
2019-01-12T22:11:25.687Z,99.33
2019-01-12T22:13:54.160Z,99.32
2019-01-12T22:16:43.258Z,99.52
2019-01-12T22:19:30.985Z,99.28
2019-01-12T22:21:59.440Z,99.31
2019-01-12T22:24:27.946Z,99.74
2019-01-12T22:26:56.374Z,99.54
2019-01-12T22:29:24.854Z,99.42
2019-01-12T22:31:53.304Z,99.33
2019-01-12T22:34:21.823Z,99.65
2019-01-12T22:36:50.269Z,99.99
2019-01-12T22:39:18.720Z,99.82
2019-01-12T22:41:47.191Z,99.70
2019-01-12T22:44:15.631Z,99.76
2019-01-12T22:47:03.437Z,99.86
2019-01-12T22:49:31.884Z,99.88
2019-01-12T22:52:00.364Z,99.72
2019-01-12T22:54:28.821Z,99.59
2019-01-12T22:56:57.305Z,99.59
2019-01-12T22:59:25.747Z,99.43
2019-01-12T23:05:00.683Z,98.79
2019-01-12T23:07:29.169Z,98.98
2019-01-12T23:09:57.617Z,99.30
2019-01-12T23:12:26.126Z,99.45
2019-01-12T23:14:54.611Z,99.27
2019-01-12T23:17:23.097Z,99.26
2019-01-12T23:19:51.552Z,99.00
2019-01-12T23:22:20.038Z,98.96
2019-01-12T23:24:48.494Z,98.72
2019-01-12T23:27:16.968Z,98.44
2019-01-12T23:29:45.424Z,98.30
2019-01-12T23:32:13.894Z,98.26
2019-01-12T23:34:42.346Z,98.39
2019-01-12T23:37:10.823Z,98.25
2019-01-12T23:39:39.278Z,98.21
2019-01-12T23:42:07.774Z,98.16
2019-01-12T23:44:36.240Z,98.27
2019-01-12T23:47:25.527Z,97.93
2019-01-12T23:49:53.993Z,97.76
2019-01-12T23:52:22.445Z,97.56
2019-01-12T23:54:50.903Z,97.87
2019-01-12T23:57:19.383Z,97.96
2019-01-12T23:59:47.843Z,97.82
